Time;durP1;ratioP1;P1;durP2;ratioP2;P2;SDS_P1;SDS_P2;PMS_P1;PMS_P2;Temp;Humidity;BMP_temperature;BMP_pressure;BME280_temperature;BME280_humidity;BME280_pressure;Samples;Min_cycle;Max_cycle;Signal;HPM_P1;HPM_P2
2023/03/13 00:00:10;;;;;;;27.13;5.80;;;;;;;8.64;100.00;100099.53;5069204;28;20012;-75
2023/03/13 00:02:35;;;;;;;24.77;5.13;;;;;;;8.63;100.00;100098.69;5060544;28;20111;-75
2023/03/13 00:05:00;;;;;;;20.75;4.88;;;;;;;8.61;100.00;100092.63;5066702;28;20119;-74
2023/03/13 00:07:26;;;;;;;23.73;5.03;;;;;;;8.57;100.00;100091.97;5070913;28;20040;-75
2023/03/13 00:09:51;;;;;;;24.98;5.97;;;;;;;8.57;100.00;100085.78;5052373;28;20048;-74
2023/03/13 00:12:16;;;;;;;23.50;5.35;;;;;;;8.56;100.00;100073.34;5070716;28;20043;-75
2023/03/13 00:14:42;;;;;;;19.58;5.07;;;;;;;8.54;100.00;100069.97;5070597;28;20013;-75
2023/03/13 00:17:07;;;;;;;22.77;5.63;;;;;;;8.52;100.00;100063.84;5071041;28;20035;-75
2023/03/13 00:19:32;;;;;;;21.55;5.82;;;;;;;8.52;100.00;100063.84;5052993;28;20104;-75
2023/03/13 00:21:58;;;;;;;27.77;5.15;;;;;;;8.50;100.00;100052.41;5052737;28;20020;-75
2023/03/13 00:24:23;;;;;;;29.20;5.82;;;;;;;8.49;100.00;100039.97;5069917;28;20098;-74
2023/03/13 00:26:48;;;;;;;17.55;5.47;;;;;;;8.47;100.00;100040.09;5071168;28;20531;-75
2023/03/13 00:29:14;;;;;;;22.70;5.82;;;;;;;8.46;100.00;100041.06;5055535;28;20028;-74
2023/03/13 00:31:39;;;;;;;21.95;5.35;;;;;;;8.46;100.00;100035.72;5054111;28;20021;-74
2023/03/13 00:34:05;;;;;;;23.92;6.05;;;;;;;8.45;100.00;100028.69;5046555;28;20022;-75
2023/03/13 00:36:33;;;;;;;20.85;5.55;;;;;;;8.45;100.00;100014.41;5053941;28;20407;-75
2023/03/13 00:38:59;;;;;;;28.95;6.18;;;;;;;8.45;100.00;100007.25;5055444;28;20024;-75
2023/03/13 00:41:30;;;;;;;29.42;5.82;;;;;;;8.44;100.00;100004.66;5074098;28;20024;-74
2023/03/13 00:43:56;;;;;;;21.58;4.85;;;;;;;8.44;100.00;100002.84;5072449;28;20091;-74
2023/03/13 00:46:24;;;;;;;21.80;5.78;;;;;;;8.43;100.00;99998.44;5071518;28;20025;-75
2023/03/13 00:48:50;;;;;;;25.65;6.03;;;;;;;8.43;100.00;99987.72;5072286;28;20041;-75
2023/03/13 00:51:17;;;;;;;23.67;5.35;;;;;;;8.43;100.00;99990.41;5055947;28;20063;-74
2023/03/13 00:53:42;;;;;;;33.10;6.35;;;;;;;8.44;100.00;99983.25;5055067;28;20024;-75
2023/03/13 00:56:14;;;;;;;24.27;5.60;;;;;;;8.45;100.00;99977.78;5055138;28;20119;-75
2023/03/13 00:58:41;;;;;;;27.58;5.90;;;;;;;8.45;100.00;99979.59;5047369;28;20484;-75
2023/03/13 01:01:14;;;;;;;23.80;6.10;;;;;;;8.46;100.00;99970.59;5039517;28;20514;-74
2023/03/13 01:03:42;;;;;;;26.10;5.50;;;;;;;8.46;100.00;99966.09;5052353;28;20479;-74
2023/03/13 01:06:10;;;;;;;21.38;5.90;;;;;;;8.48;100.00;99955.28;5054326;28;20123;-75
2023/03/13 01:08:36;;;;;;;22.45;5.65;;;;;;;8.48;100.00;99942.75;5071478;28;20145;-74
2023/03/13 01:11:08;;;;;;;20.50;5.43;;;;;;;8.48;100.00;99939.22;5071988;28;20048;-75
2023/03/13 01:13:34;;;;;;;24.63;6.28;;;;;;;8.51;100.00;99936.28;5072093;28;20028;-75
2023/03/13 01:16:19;;;;;;;20.23;6.22;;;;;;;8.52;100.00;99930.81;5064692;28;20024;-75
2023/03/13 01:18:47;;;;;;;22.00;5.88;;;;;;;8.56;100.00;99929.59;5073153;28;20070;-75
2023/03/13 01:21:14;;;;;;;21.10;5.75;;;;;;;8.58;100.00;99929.47;5069448;28;20032;-74
2023/03/13 01:23:39;;;;;;;20.75;5.13;;;;;;;8.61;100.00;99918.53;5071602;28;20020;-76
2023/03/13 01:26:06;;;;;;;19.77;5.43;;;;;;;8.62;100.00;99900.59;5071491;28;20021;-75
2023/03/13 01:28:32;;;;;;;18.05;4.82;;;;;;;8.62;100.00;99898.78;5070779;28;20409;-75
2023/03/13 01:30:58;;;;;;;18.30;4.70;;;;;;;8.65;100.00;99895.84;5071215;28;20111;-75
2023/03/13 01:33:23;;;;;;;19.63;5.40;;;;;;;8.68;100.00;99890.25;5072390;28;20039;-75
2023/03/13 01:35:49;;;;;;;20.00;5.60;;;;;;;8.68;100.00;99881.34;5072276;28;20024;-75
2023/03/13 01:38:14;;;;;;;25.27;5.55;;;;;;;8.72;100.00;99890.84;5072079;28;20020;-75
2023/03/13 01:40:45;;;;;;;19.67;4.50;;;;;;;8.75;100.00;99879.88;5071429;28;20139;-75
2023/03/13 01:43:17;;;;;;;20.63;4.95;;;;;;;8.77;100.00;99875.28;5071310;28;20048;-75
2023/03/13 01:45:57;;;;;;;15.23;4.35;;;;;;;8.79;100.00;99876.00;5070870;28;20411;-74
2023/03/13 01:48:32;;;;;;;19.00;5.10;;;;;;;8.82;100.00;99869.53;5073129;28;20035;-75
2023/03/13 01:51:00;;;;;;;16.48;4.45;;;;;;;8.86;100.00;99865.63;5071809;28;20445;-74
2023/03/13 01:53:29;;;;;;;20.85;5.05;;;;;;;8.87;100.00;99853.91;5070960;28;20123;-75
2023/03/13 01:55:56;;;;;;;19.40;5.05;;;;;;;8.89;100.00;99850.13;5069827;28;20379;-75
2023/03/13 01:58:22;;;;;;;13.82;4.00;;;;;;;8.91;100.00;99840.13;5071278;28;20032;-75
2023/03/13 02:00:47;;;;;;;16.30;3.97;;;;;;;8.95;100.00;99832.72;5063719;28;20032;-74
2023/03/13 02:03:17;;;;;;;15.80;4.60;;;;;;;8.98;100.00;99831.63;5077064;28;20024;-75
2023/03/13 02:05:44;;;;;;;17.05;4.68;;;;;;;9.01;100.00;99821.47;5071731;28;20404;-72
2023/03/13 02:08:49;;;;;;;12.18;3.53;;;;;;;9.03;100.00;99816.81;5072531;28;20028;-73
2023/03/13 02:11:40;;;;;;;15.02;3.80;;;;;;;9.06;100.00;99800.50;5021973;28;20038;-74
2023/03/13 02:14:06;;;;;;;16.67;4.47;;;;;;;9.09;100.00;99785.97;5015341;28;20037;-73
2023/03/13 02:16:33;;;;;;;14.98;4.18;;;;;;;9.12;100.00;99790.25;5015321;28;20041;-72
2023/03/13 02:19:01;;;;;;;14.68;4.50;;;;;;;9.13;100.00;99781.22;5030200;28;20473;-72
2023/03/13 02:21:29;;;;;;;13.57;4.55;;;;;;;9.16;100.00;99763.03;5029463;28;20056;-72
2023/03/13 02:24:12;;;;;;;16.23;4.85;;;;;;;9.17;100.00;99762.06;5031691;28;20035;-72
2023/03/13 02:26:37;;;;;;;18.25;4.20;;;;;;;9.21;100.00;99757.28;5033454;28;20204;-73
2023/03/13 02:29:03;;;;;;;12.65;3.97;;;;;;;9.23;100.00;99748.13;5028525;28;20026;-72
2023/03/13 02:31:29;;;;;;;17.33;4.18;;;;;;;9.24;100.00;99763.25;5029249;28;20033;-72
2023/03/13 02:33:58;;;;;;;21.70;5.40;;;;;;;9.27;100.00;99762.97;5013925;28;20365;-72
2023/03/13 02:36:24;;;;;;;16.40;4.28;;;;;;;9.29;100.00;99760.16;5037081;28;20629;-72
2023/03/13 02:39:01;;;;;;;16.42;4.43;;;;;;;9.31;100.00;99760.03;5028690;28;20049;-72
2023/03/13 02:41:27;;;;;;;18.52;5.30;;;;;;;9.34;100.00;99746.38;5029225;28;20069;-72
2023/03/13 02:43:53;;;;;;;16.05;5.10;;;;;;;9.35;100.00;99748.06;5029924;28;20030;-73
2023/03/13 02:46:19;;;;;;;18.58;5.00;;;;;;;9.35;100.00;99743.53;5058533;28;20396;-72
2023/03/13 02:48:50;;;;;;;15.98;4.35;;;;;;;9.38;100.00;99740.59;5070178;28;20024;-72
2023/03/13 02:51:28;;;;;;;13.25;4.18;;;;;;;9.42;100.00;99739.34;5051590;28;20032;-73
2023/03/13 02:53:59;;;;;;;17.70;5.00;;;;;;;9.42;100.00;99731.31;5069670;28;20118;-72
2023/03/13 02:56:26;;;;;;;13.52;4.40;;;;;;;9.47;100.00;99740.78;5071663;28;20025;-73
2023/03/13 02:58:52;;;;;;;17.42;5.85;;;;;;;9.49;100.00;99744.19;5070961;28;20024;-72
2023/03/13 03:01:17;;;;;;;19.67;5.93;;;;;;;9.50;100.00;99746.72;5059545;28;20032;-73
2023/03/13 03:03:42;;;;;;;16.67;5.15;;;;;;;9.53;100.00;99746.50;5067169;28;20559;-72
2023/03/13 03:06:08;;;;;;;19.17;5.78;;;;;;;9.54;100.00;99747.34;5061910;28;20119;-72
2023/03/13 03:08:34;;;;;;;16.20;5.10;;;;;;;9.54;100.00;99744.66;5070181;28;20028;-73
2023/03/13 03:10:59;;;;;;;18.10;6.05;;;;;;;9.57;100.00;99742.53;5052382;28;20157;-72
2023/03/13 03:13:25;;;;;;;16.50;4.82;;;;;;;9.59;100.00;99756.69;5070944;28;20032;-72
2023/03/13 03:15:50;;;;;;;15.98;5.07;;;;;;;9.62;100.00;99742.16;5070590;28;20028;-72
2023/03/13 03:18:15;;;;;;;16.50;5.20;;;;;;;9.65;100.00;99744.56;5053024;28;20025;-72
2023/03/13 03:20:41;;;;;;;16.95;5.28;;;;;;;9.68;100.00;99743.44;5062211;28;20174;-73
2023/03/13 03:23:06;;;;;;;15.88;5.32;;;;;;;9.69;100.00;99745.97;5071784;28;20583;-72
2023/03/13 03:25:31;;;;;;;15.20;5.38;;;;;;;9.72;100.00;99744.88;5050218;28;20028;-73
2023/03/13 03:27:57;;;;;;;17.02;4.63;;;;;;;9.72;100.00;99744.88;5071326;28;20025;-72
2023/03/13 03:30:22;;;;;;;17.00;5.30;;;;;;;9.74;100.00;99724.97;5070858;28;20116;-72
2023/03/13 03:32:47;;;;;;;16.95;5.05;;;;;;;9.75;100.00;99725.81;5071418;28;20040;-72
2023/03/13 03:35:12;;;;;;;14.80;5.30;;;;;;;9.76;100.00;99725.69;5071362;28;20082;-72
2023/03/13 03:37:38;;;;;;;15.75;5.60;;;;;;;9.77;100.00;99729.22;5071583;28;20025;-72
2023/03/13 03:40:07;;;;;;;15.02;4.95;;;;;;;9.83;100.00;99726.00;5053020;28;20033;-72
2023/03/13 03:42:32;;;;;;;17.77;5.38;;;;;;;9.85;100.00;99720.50;5046231;28;20028;-72
2023/03/13 03:44:58;;;;;;;19.25;5.65;;;;;;;9.86;100.00;99722.19;5070917;28;20506;-73
2023/03/13 03:47:23;;;;;;;16.40;6.20;;;;;;;9.87;100.00;99731.94;5071369;28;20043;-71
2023/03/13 03:49:48;;;;;;;16.92;5.65;;;;;;;9.86;100.00;99727.56;5071000;28;20060;-72
2023/03/13 03:52:14;;;;;;;19.52;5.78;;;;;;;9.88;100.00;99720.22;5071629;28;20032;-72
2023/03/13 03:54:39;;;;;;;17.23;5.72;;;;;;;9.91;100.00;99718.13;5052934;28;20103;-72
2023/03/13 03:57:04;;;;;;;18.33;6.20;;;;;;;9.92;100.00;99724.34;5071393;28;20524;-72
2023/03/13 03:59:30;;;;;;;19.17;6.35;;;;;;;9.95;100.00;99724.06;5070973;28;20029;-74
2023/03/13 04:01:55;;;;;;;17.90;6.30;;;;;;;9.96;100.00;99715.88;5061144;28;20032;-72
2023/03/13 04:04:20;;;;;;;20.05;6.03;;;;;;;9.97;100.00;99708.66;5067831;28;20028;-73
2023/03/13 04:06:46;;;;;;;17.90;6.30;;;;;;;9.99;100.00;99719.28;5066077;28;20045;-73
2023/03/13 04:09:11;;;;;;;22.98;6.45;;;;;;;10.01;100.00;99712.78;5073843;28;20118;-73
2023/03/13 04:11:36;;;;;;;19.88;6.57;;;;;;;10.03;100.00;99710.81;5073004;28;20040;-72
2023/03/13 04:14:01;;;;;;;21.40;7.35;;;;;;;10.03;100.00;99718.88;5073096;28;20036;-72
2023/03/13 04:16:27;;;;;;;17.98;6.50;;;;;;;10.04;100.00;99723.22;5051343;28;20234;-73
2023/03/13 04:18:52;;;;;;;18.92;7.00;;;;;;;10.07;100.00;99701.50;5071557;28;20043;-72
2023/03/13 04:21:17;;;;;;;18.60;6.18;;;;;;;10.09;100.00;99694.16;5072035;28;20024;-73
2023/03/13 04:23:43;;;;;;;19.10;6.22;;;;;;;10.13;100.00;99679.47;5064611;28;20021;-72
2023/03/13 04:26:08;;;;;;;18.00;5.80;;;;;;;10.14;100.00;99675.78;5074472;28;20460;-72
2023/03/13 04:28:33;;;;;;;19.23;5.40;;;;;;;10.17;100.00;99677.34;5074600;28;20384;-72
2023/03/13 04:31:00;;;;;;;17.85;5.68;;;;;;;10.20;100.00;99668.16;5070975;28;20483;-72
2023/03/13 04:33:25;;;;;;;19.67;5.68;;;;;;;10.24;100.00;99673.13;5051380;28;20043;-72
2023/03/13 04:35:50;;;;;;;16.60;5.65;;;;;;;10.27;100.00;99663.94;5072476;28;20028;-72
2023/03/13 04:38:16;;;;;;;16.17;5.80;;;;;;;10.27;100.00;99661.25;5050197;28;20086;-73
2023/03/13 04:40:42;;;;;;;18.23;5.30;;;;;;;10.29;100.00;99657.44;5069483;28;20456;-73
2023/03/13 04:43:07;;;;;;;18.17;4.88;;;;;;;10.32;100.00;99648.25;5072108;28;20024;-73
2023/03/13 04:45:33;;;;;;;19.52;5.97;;;;;;;10.35;100.00;99650.69;5072494;28;20029;-72
2023/03/13 04:47:58;;;;;;;20.48;5.60;;;;;;;10.37;100.00;99645.19;5073611;28;20095;-73
2023/03/13 04:50:23;;;;;;;14.15;4.80;;;;;;;10.38;100.00;99650.41;5043662;28;20024;-73
2023/03/13 04:52:48;;;;;;;16.40;4.60;;;;;;;10.39;100.00;99644.03;5072360;28;20075;-72
2023/03/13 04:55:14;;;;;;;17.70;4.95;;;;;;;10.42;100.00;99637.53;5073617;28;20116;-72
2023/03/13 04:57:39;;;;;;;15.88;5.05;;;;;;;10.43;100.00;99644.63;5073482;28;20063;-72
2023/03/13 05:00:07;;;;;;;18.00;5.22;;;;;;;10.44;100.00;99639.09;5049673;28;20039;-72
2023/03/13 05:02:32;;;;;;;15.57;4.93;;;;;;;10.46;100.00;99639.81;5061294;28;20039;-73
2023/03/13 05:04:57;;;;;;;15.40;4.53;;;;;;;10.47;100.00;99628.06;5069775;28;20025;-73
2023/03/13 05:07:23;;;;;;;15.98;5.20;;;;;;;10.49;100.00;99620.72;5073706;28;20038;-72
2023/03/13 05:09:48;;;;;;;17.77;5.15;;;;;;;10.49;100.00;99628.78;5073398;28;20056;-72
2023/03/13 05:12:13;;;;;;;18.73;4.53;;;;;;;10.51;100.00;99631.31;5071513;28;20028;-72
2023/03/13 05:14:39;;;;;;;15.77;4.88;;;;;;;10.55;100.00;99631.88;5055083;28;20487;-72
2023/03/13 05:17:04;;;;;;;18.15;5.15;;;;;;;10.56;100.00;99628.22;5072369;28;20024;-72
2023/03/13 05:19:29;;;;;;;14.88;4.28;;;;;;;10.57;100.00;99624.53;5052384;28;20494;-72
2023/03/13 05:21:55;;;;;;;15.95;4.40;;;;;;;10.59;100.00;99620.72;5052808;28;20020;-72
2023/03/13 05:24:20;;;;;;;14.60;4.05;;;;;;;10.61;100.00;99629.47;5071116;28;20120;-72
2023/03/13 05:26:45;;;;;;;17.27;4.80;;;;;;;10.64;100.00;99606.84;5054032;28;20033;-73
2023/03/13 05:29:10;;;;;;;20.92;4.65;;;;;;;10.66;100.00;99610.25;5072401;28;20028;-73
2023/03/13 05:31:36;;;;;;;13.13;4.35;;;;;;;10.67;100.00;99617.31;5054934;28;20032;-72
2023/03/13 05:34:01;;;;;;;12.85;4.22;;;;;;;10.68;100.00;99613.63;5062862;28;20028;-72
2023/03/13 05:36:26;;;;;;;16.13;4.90;;;;;;;10.68;100.00;99613.63;5070806;28;20028;-72
2023/03/13 05:38:52;;;;;;;12.27;4.00;;;;;;;10.70;100.00;99610.81;5071989;28;20365;-72
2023/03/13 05:41:17;;;;;;;15.40;4.30;;;;;;;10.73;100.00;99613.19;5071330;28;20115;-72
2023/03/13 05:43:42;;;;;;;14.80;4.38;;;;;;;10.74;100.00;99621.09;5072944;28;20036;-72
2023/03/13 05:46:07;;;;;;;17.65;4.72;;;;;;;10.75;100.00;99613.91;5071926;28;20027;-72
2023/03/13 05:48:33;;;;;;;20.55;5.22;;;;;;;10.76;100.00;99621.84;5053264;28;20028;-73
2023/03/13 05:50:58;;;;;;;13.15;4.30;;;;;;;10.77;100.00;99610.06;5049300;28;20027;-73
2023/03/13 05:53:23;;;;;;;13.40;4.43;;;;;;;10.78;100.00;99614.47;5054331;28;20036;-73
2023/03/13 05:55:48;;;;;;;14.95;4.50;;;;;;;10.79;100.00;99621.53;5069585;28;20103;-72
2023/03/13 05:58:14;;;;;;;14.45;4.30;;;;;;;10.78;100.00;99625.22;5043458;28;20029;-72
2023/03/13 06:00:39;;;;;;;14.00;3.90;;;;;;;10.79;100.00;99618.84;5063881;28;20107;-74
2023/03/13 06:03:04;;;;;;;14.20;3.78;;;;;;;10.79;100.00;99616.16;5064784;28;20032;-72
2023/03/13 06:05:29;;;;;;;15.98;4.55;;;;;;;10.82;100.00;99607.81;5071470;28;20044;-74
2023/03/13 06:07:55;;;;;;;13.27;4.45;;;;;;;10.84;100.00;99623.78;5040667;28;20056;-72
2023/03/13 06:10:20;;;;;;;13.05;4.35;;;;;;;10.89;100.00;99616.13;5069500;28;20032;-73
2023/03/13 06:12:55;;;;;;;15.77;4.53;;;;;;;10.87;100.00;99626.19;5053996;28;20479;-72
2023/03/13 06:15:21;;;;;;;12.50;3.80;;;;;;;10.88;100.00;99611.75;5069681;28;20490;-73
2023/03/13 06:17:46;;;;;;;17.63;4.60;;;;;;;10.91;100.00;99605.22;5065454;28;20468;-72
2023/03/13 06:20:12;;;;;;;19.02;4.32;;;;;;;10.93;100.00;99600.56;5072631;28;20031;-72
2023/03/13 06:22:37;;;;;;;14.00;4.15;;;;;;;10.93;100.00;99600.56;5071829;28;20036;-72
2023/03/13 06:25:03;;;;;;;17.88;4.35;;;;;;;10.96;100.00;99611.03;5070710;28;20103;-73
2023/03/13 06:27:28;;;;;;;14.45;4.03;;;;;;;10.97;100.00;99594.75;5054383;28;20103;-72
2023/03/13 06:29:53;;;;;;;15.20;4.07;;;;;;;10.97;100.00;99599.28;5064750;28;20103;-72
2023/03/13 06:32:19;;;;;;;13.35;3.78;;;;;;;10.98;100.00;99598.28;5066932;28;20024;-73
2023/03/13 06:34:44;;;;;;;17.15;4.28;;;;;;;10.98;100.00;99603.66;5070583;28;20054;-73
2023/03/13 06:37:09;;;;;;;14.70;4.55;;;;;;;11.00;100.00;99604.38;5069672;28;20107;-73
2023/03/13 06:39:34;;;;;;;20.08;4.20;;;;;;;11.00;100.00;99607.91;5052832;28;20101;-73
2023/03/13 06:42:00;;;;;;;21.50;4.50;;;;;;;11.02;100.00;99589.81;5069773;28;20078;-72
2023/03/13 06:44:26;;;;;;;14.70;4.30;;;;;;;11.02;100.00;99583.56;5070190;28;20056;-72
2023/03/13 06:46:51;;;;;;;18.25;4.32;;;;;;;11.04;100.00;99599.53;5054544;28;20032;-72
2023/03/13 06:49:16;;;;;;;17.30;4.68;;;;;;;11.05;100.00;99587.81;5069481;28;20349;-73
2023/03/13 06:51:41;;;;;;;15.07;4.32;;;;;;;11.06;100.00;99603.78;5069324;28;20082;-72
2023/03/13 06:54:07;;;;;;;15.88;4.43;;;;;;;11.07;100.00;99602.78;5067613;28;20475;-73
2023/03/13 06:56:32;;;;;;;21.63;5.20;;;;;;;11.08;100.00;99593.72;5070988;28;20034;-73
2023/03/13 06:58:57;;;;;;;14.02;3.58;;;;;;;11.09;100.00;99590.03;5065142;28;20059;-72
2023/03/13 07:01:23;;;;;;;14.40;4.15;;;;;;;11.10;100.00;99594.44;5060010;28;20039;-74
2023/03/13 07:03:48;;;;;;;14.90;4.63;;;;;;;11.12;100.00;99588.91;5063931;28;20020;-73
2023/03/13 07:06:14;;;;;;;19.88;4.15;;;;;;;11.12;100.00;99587.06;5037161;28;20045;-75
2023/03/13 07:08:40;;;;;;;17.10;4.47;;;;;;;11.13;100.00;99594.13;5047404;28;20112;-75
2023/03/13 07:11:10;;;;;;;15.07;3.63;;;;;;;11.15;100.00;99594.00;5030953;28;20115;-75
2023/03/13 07:13:36;;;;;;;15.95;4.20;;;;;;;11.18;100.00;99588.31;5053559;28;20062;-75
2023/03/13 07:16:03;;;;;;;13.75;4.05;;;;;;;11.20;100.00;99594.41;5058515;28;20033;-74
2023/03/13 07:18:29;;;;;;;18.83;4.47;;;;;;;11.23;100.00;99582.47;5040499;28;20029;-74
2023/03/13 07:20:57;;;;;;;20.55;4.43;;;;;;;11.26;100.00;99585.75;5032705;28;20373;-75
2023/03/13 07:23:23;;;;;;;13.90;4.05;;;;;;;11.28;100.00;99582.91;5032564;28;20115;-74
2023/03/13 07:26:03;;;;;;;16.10;4.30;;;;;;;11.30;100.00;99597.91;5050980;28;20380;-74
2023/03/13 07:28:32;;;;;;;18.60;4.65;;;;;;;11.32;100.00;99587.00;5045195;28;20037;-74
2023/03/13 07:31:15;;;;;;;17.73;4.55;;;;;;;11.34;100.00;99572.38;5031452;28;20533;-74
2023/03/13 07:33:41;;;;;;;13.10;3.42;;;;;;;11.37;100.00;99580.16;5035564;28;20087;-75
2023/03/13 07:36:07;;;;;;;18.55;4.13;;;;;;;11.42;100.00;99577.03;5051234;28;20025;-75
2023/03/13 07:38:33;;;;;;;16.88;3.67;;;;;;;11.44;100.00;99580.41;5053442;28;20032;-75
2023/03/13 07:40:58;;;;;;;20.15;4.25;;;;;;;11.46;100.00;99597.25;5032401;28;20422;-74
2023/03/13 07:43:24;;;;;;;13.07;4.10;;;;;;;11.49;100.00;99596.09;5049641;28;20035;-74
2023/03/13 07:45:58;;;;;;;16.05;3.85;;;;;;;11.49;100.00;99588.91;5043416;28;20428;-74
2023/03/13 07:48:26;;;;;;;14.57;3.80;;;;;;;11.48;100.00;99589.88;5050064;28;20140;-75
2023/03/13 07:50:53;;;;;;;15.70;4.63;;;;;;;11.47;100.00;99593.56;5053160;28;20036;-75
2023/03/13 07:53:21;;;;;;;18.88;4.68;;;;;;;11.47;100.00;99593.56;5035305;28;20059;-75
2023/03/13 07:55:53;;;;;;;16.15;4.45;;;;;;;11.46;100.00;99607.16;5034970;28;20020;-74
2023/03/13 07:58:19;;;;;;;18.25;4.05;;;;;;;11.46;100.00;99588.34;5053673;28;20035;-75
2023/03/13 08:00:44;;;;;;;19.13;4.50;;;;;;;11.45;100.00;99587.50;5033556;28;20115;-75
2023/03/13 08:03:09;;;;;;;14.00;4.25;;;;;;;11.46;100.00;99578.41;5050791;28;20083;-75
2023/03/13 08:05:34;;;;;;;15.00;3.75;;;;;;;11.50;100.00;99574.44;5034446;28;20037;-75
2023/03/13 08:08:00;;;;;;;18.80;4.35;;;;;;;11.56;100.00;99590.97;5051355;28;20031;-75
2023/03/13 08:10:25;;;;;;;16.52;4.47;;;;;;;11.59;100.00;99575.38;5034302;28;20017;-75
2023/03/13 08:12:50;;;;;;;14.95;4.55;;;;;;;11.63;100.00;99579.47;5052915;28;20063;-75
2023/03/13 08:15:17;;;;;;;16.33;3.25;;;;;;;11.66;100.00;99565.69;5052339;28;20052;-74
2023/03/13 08:17:42;;;;;;;17.10;4.35;;;;;;;11.70;100.00;99561.72;5048604;28;20488;-75
2023/03/13 08:20:09;;;;;;;19.30;4.10;;;;;;;11.73;100.00;99563.25;5052489;28;20049;-76
2023/03/13 08:22:35;;;;;;;15.65;4.10;;;;;;;11.75;100.00;99561.25;5051855;28;20515;-76
2023/03/13 08:25:01;;;;;;;19.30;4.45;;;;;;;11.74;100.00;99559.53;5052525;28;20597;-76
2023/03/13 08:27:28;;;;;;;15.98;4.20;;;;;;;11.77;100.00;99574.56;5052498;28;20029;-75
2023/03/13 08:29:53;;;;;;;14.95;4.35;;;;;;;11.80;100.00;99552.72;5051610;28;20067;-76
2023/03/13 08:32:19;;;;;;;13.23;4.18;;;;;;;11.82;100.00;99546.19;5051980;28;20059;-75
2023/03/13 08:34:44;;;;;;;10.38;3.33;;;;;;;11.87;100.00;99562.75;5051872;28;20017;-75
2023/03/13 08:37:14;;;;;;;13.40;3.28;;;;;;;11.89;100.00;99568.81;5051976;28;20473;-76
2023/03/13 08:39:39;;;;;;;16.10;3.72;;;;;;;11.92;100.00;99562.28;5033898;28;20025;-76
2023/03/13 08:42:07;;;;;;;16.80;4.05;;;;;;;11.97;100.00;99534.91;5052533;28;20511;-76
2023/03/13 08:44:32;;;;;;;16.98;3.40;;;;;;;12.02;100.00;99554.13;5034190;28;20480;-75
2023/03/13 08:46:58;;;;;;;12.30;2.90;;;;;;;12.09;100.00;99549.00;5051828;28;20033;-76
2023/03/13 08:49:24;;;;;;;13.27;3.83;;;;;;;12.11;100.00;99555.94;5052448;28;20025;-76
2023/03/13 08:51:49;;;;;;;12.50;3.30;;;;;;;12.14;100.00;99546.66;5051738;28;20551;-76
2023/03/13 08:54:15;;;;;;;9.27;3.30;;;;;;;12.17;100.00;99563.38;5034340;28;20029;-75
2023/03/13 08:56:42;;;;;;;12.50;3.55;;;;;;;12.19;100.00;99564.06;5051039;28;20472;-77
2023/03/13 08:59:07;;;;;;;11.55;3.20;;;;;;;12.22;100.00;99558.38;5031167;28;20061;-74
2023/03/13 09:01:34;;;;;;;13.88;3.45;;;;;;;12.23;100.00;99551.97;5047705;28;20035;-74
2023/03/13 09:04:00;;;;;;;8.57;3.00;;;;;;;12.26;100.00;99561.59;5045754;28;20029;-74
2023/03/13 09:06:26;;;;;;;11.75;3.10;;;;;;;12.27;100.00;99536.38;5059940;28;20377;-74
2023/03/13 09:08:51;;;;;;;11.82;3.65;;;;;;;12.29;100.00;99549.69;5066790;28;20113;-74
2023/03/13 09:11:19;;;;;;;10.20;3.53;;;;;;;12.30;100.00;99557.59;5066608;28;20676;-73
2023/03/13 09:13:46;;;;;;;11.73;3.58;;;;;;;12.30;100.00;99546.84;5042240;28;20020;-74
2023/03/13 09:16:16;;;;;;;12.70;3.55;;;;;;;12.31;100.00;99537.72;5049414;28;20020;-74
2023/03/13 09:18:42;;;;;;;11.18;3.70;;;;;;;12.31;100.00;99536.88;5049263;28;20049;-76
2023/03/13 09:21:12;;;;;;;12.73;3.78;;;;;;;12.34;100.00;99528.50;5067245;28;20032;-75
2023/03/13 09:23:37;;;;;;;11.30;3.85;;;;;;;12.37;100.00;99525.47;5047000;28;20039;-74
2023/03/13 09:26:02;;;;;;;14.45;4.10;;;;;;;12.41;100.00;99516.09;5048605;28;20032;-76
2023/03/13 09:28:28;;;;;;;16.98;4.28;;;;;;;12.45;100.00;99514.78;5048572;28;20028;-75
2023/03/13 09:30:53;;;;;;;13.75;3.72;;;;;;;12.50;100.00;99514.28;5065978;28;20028;-76
2023/03/13 09:33:22;;;;;;;15.80;3.85;;;;;;;12.51;100.00;99506.06;5064561;28;20025;-74
2023/03/13 09:35:49;;;;;;;10.70;3.10;;;;;;;12.55;100.00;99488.56;5071123;28;20407;-75
2023/03/13 09:38:20;;;;;;;12.32;3.80;;;;;;;12.65;100.00;99501.94;5069234;28;20032;-74
2023/03/13 09:40:47;;;;;;;13.77;3.60;;;;;;;12.69;100.00;99486.28;5052977;28;20511;-75
2023/03/13 09:43:31;;;;;;;12.52;3.65;;;;;;;12.72;100.00;99491.34;5053137;28;20025;-74
2023/03/13 09:46:02;;;;;;;14.23;3.70;;;;;;;12.75;100.00;99486.50;5051752;28;20024;-74
2023/03/13 09:48:36;;;;;;;14.07;3.70;;;;;;;12.83;100.00;99479.47;5044308;28;20038;-75
2023/03/13 09:51:31;;;;;;;12.38;3.50;;;;;;;12.89;100.00;99485.03;5048473;28;20032;-75
2023/03/13 09:54:15;;;;;;;10.95;3.25;;;;;;;12.94;100.00;99479.16;5044814;28;20119;-74
2023/03/13 09:57:14;;;;;;;12.45;3.67;;;;;;;12.97;100.00;99488.78;5068315;28;20040;-75
2023/03/13 09:59:42;;;;;;;11.30;3.13;;;;;;;13.01;100.00;99465.88;4968880;28;20034;-75
2023/03/13 10:02:27;;;;;;;10.20;3.13;;;;;;;13.03;100.00;99467.41;4984669;28;20108;-74
2023/03/13 10:05:01;;;;;;;10.93;3.03;;;;;;;13.09;98.59;99476.72;4984176;28;20034;-74
2023/03/13 10:07:26;;;;;;;12.25;3.13;;;;;;;13.14;98.08;99468.13;4986809;28;20105;-75
2023/03/13 10:09:52;;;;;;;5.38;2.45;;;;;;;13.17;97.50;99468.63;4988649;28;20553;-75
2023/03/13 10:12:21;;;;;;;9.80;2.75;;;;;;;13.20;96.32;99457.50;4987246;28;20092;-74
2023/03/13 10:15:16;;;;;;;6.10;2.47;;;;;;;13.22;96.55;99455.50;4988942;28;20094;-75
2023/03/13 10:17:41;;;;;;;11.07;2.97;;;;;;;13.29;96.56;99479.97;4984930;28;20062;-74
2023/03/13 10:20:26;;;;;;;10.70;3.00;;;;;;;13.33;96.97;99459.75;5061227;28;20411;-75
2023/03/13 10:23:19;;;;;;;11.98;3.15;;;;;;;13.35;98.13;99456.91;5062659;28;20067;-75
2023/03/13 10:25:45;;;;;;;11.10;2.72;;;;;;;13.41;96.49;99458.94;5060108;28;20020;-75
2023/03/13 10:28:18;;;;;;;6.63;2.83;;;;;;;13.43;93.16;99467.75;5061849;28;20025;-75
2023/03/13 10:30:47;;;;;;;13.90;3.17;;;;;;;13.47;91.87;99442.13;5062772;28;20341;-75
2023/03/13 10:33:13;;;;;;;;;;;;;;;13.46;93.62;99445.81;5056441;28;20444;-75
2023/03/13 10:35:40;;;;;;;9.63;2.92;;;;;;;13.48;93.72;99448.34;5077980;28;19912;-75
2023/03/13 10:38:20;;;;;;;10.65;2.78;;;;;;;13.51;93.52;99437.22;5064328;28;20033;-75
2023/03/13 10:41:00;;;;;;;12.52;2.97;;;;;;;13.55;92.34;99434.00;5063431;28;20025;-75
2023/03/13 10:43:27;;;;;;;9.07;2.35;;;;;;;13.58;93.65;99441.78;5061613;28;20559;-76
2023/03/13 10:45:53;;;;;;;9.00;2.85;;;;;;;13.59;93.18;99435.38;5061043;28;20045;-75
2023/03/13 10:48:25;;;;;;;8.63;2.95;;;;;;;13.60;93.49;99439.78;5060146;28;20029;-75
2023/03/13 10:50:58;;;;;;;11.52;2.70;;;;;;;13.60;93.45;99431.69;5062316;28;20031;-75
2023/03/13 10:53:23;;;;;;;10.48;2.88;;;;;;;13.64;93.31;99434.88;5059979;28;20467;-75
2023/03/13 10:55:52;;;;;;;9.38;2.35;;;;;;;13.66;93.99;99440.09;5060327;28;20032;-75
2023/03/13 10:58:33;;;;;;;10.20;3.20;;;;;;;13.66;94.20;99432.00;5065811;28;20142;-75
2023/03/13 11:01:24;;;;;;;6.10;2.78;;;;;;;13.68;94.45;99430.84;5063754;28;20488;-75
2023/03/13 11:03:52;;;;;;;9.00;2.75;;;;;;;13.73;93.75;99443.81;5056803;28;20029;-75
2023/03/13 11:06:29;;;;;;;8.73;2.65;;;;;;;13.74;92.46;99418.53;5055836;28;20099;-75
2023/03/13 11:09:14;;;;;;;6.90;2.60;;;;;;;13.76;91.43;99422.75;5054402;28;20028;-75
2023/03/13 11:11:51;;;;;;;8.90;2.88;;;;;;;13.79;91.72;99416.13;5059759;28;20028;-76
2023/03/13 11:14:22;;;;;;;12.57;3.42;;;;;;;13.80;90.53;99417.84;5061602;28;20037;-75
2023/03/13 11:17:14;;;;;;;5.63;2.35;;;;;;;13.83;91.06;99425.59;5059286;28;20025;-75
2023/03/13 11:20:19;;;;;;;6.15;2.33;;;;;;;13.85;92.71;99406.53;5057439;28;20105;-75
2023/03/13 11:22:49;;;;;;;6.35;2.88;;;;;;;13.90;86.26;99406.88;5058040;28;20021;-75
2023/03/13 11:25:22;;;;;;;8.50;2.17;;;;;;;14.01;85.42;99411.06;5062481;28;20054;-75